sensor_id;sensor_type;location;lat;lon;timestamp;temperature;humidity
47626;DHT22;33342;45.574;9.252;2023-04-15T00:01:03;14.70;99.90
47626;DHT22;33342;45.574;9.252;2023-04-15T00:03:30;14.70;99.90
47626;DHT22;33342;45.574;9.252;2023-04-15T00:05:57;14.70;99.90
47626;DHT22;33342;45.574;9.252;2023-04-15T00:08:25;14.80;99.90
47626;DHT22;33342;45.574;9.252;2023-04-15T00:10:52;14.70;99.90
47626;DHT22;33342;45.574;9.252;2023-04-15T00:13:20;14.70;99.90
47626;DHT22;33342;45.574;9.252;2023-04-15T00:15:47;14.70;99.90
47626;DHT22;33342;45.574;9.252;2023-04-15T00:18:14;14.70;99.90
47626;DHT22;33342;45.574;9.252;2023-04-15T00:20:41;14.70;99.90
47626;DHT22;33342;45.574;9.252;2023-04-15T00:23:08;14.70;99.90
47626;DHT22;33342;45.574;9.252;2023-04-15T00:25:35;14.70;99.90
47626;DHT22;33342;45.574;9.252;2023-04-15T00:28:02;14.60;99.90
47626;DHT22;33342;45.574;9.252;2023-04-15T00:30:29;14.60;99.90
47626;DHT22;33342;45.574;9.252;2023-04-15T00:32:57;14.60;99.90
47626;DHT22;33342;45.574;9.252;2023-04-15T00:35:24;14.60;99.90
47626;DHT22;33342;45.574;9.252;2023-04-15T00:37:51;14.50;99.90
47626;DHT22;33342;45.574;9.252;2023-04-15T00:40:20;14.50;99.90
47626;DHT22;33342;45.574;9.252;2023-04-15T00:42:48;14.50;99.90
47626;DHT22;33342;45.574;9.252;2023-04-15T00:45:15;14.40;99.90
47626;DHT22;33342;45.574;9.252;2023-04-15T00:47:43;14.40;99.90
47626;DHT22;33342;45.574;9.252;2023-04-15T00:50:10;14.40;99.90
47626;DHT22;33342;45.574;9.252;2023-04-15T00:52:39;14.40;99.90
47626;DHT22;33342;45.574;9.252;2023-04-15T00:55:08;14.40;99.90
47626;DHT22;33342;45.574;9.252;2023-04-15T00:57:35;14.40;99.90
47626;DHT22;33342;45.574;9.252;2023-04-15T01:00:03;14.30;99.90
47626;DHT22;33342;45.574;9.252;2023-04-15T01:02:39;14.30;99.90
47626;DHT22;33342;45.574;9.252;2023-04-15T01:05:07;14.20;99.90
47626;DHT22;33342;45.574;9.252;2023-04-15T01:07:34;14.20;99.90
47626;DHT22;33342;45.574;9.252;2023-04-15T01:10:04;14.20;99.90
47626;DHT22;33342;45.574;9.252;2023-04-15T01:12:32;14.20;99.90
47626;DHT22;33342;45.574;9.252;2023-04-15T01:15:01;14.20;99.90
47626;DHT22;33342;45.574;9.252;2023-04-15T01:17:28;14.10;99.90
47626;DHT22;33342;45.574;9.252;2023-04-15T01:19:55;14.10;99.90
47626;DHT22;33342;45.574;9.252;2023-04-15T01:22:26;14.10;99.90
47626;DHT22;33342;45.574;9.252;2023-04-15T01:25:01;14.10;99.90
47626;DHT22;33342;45.574;9.252;2023-04-15T01:27:32;14.10;99.90
47626;DHT22;33342;45.574;9.252;2023-04-15T01:30:01;14.10;99.90
47626;DHT22;33342;45.574;9.252;2023-04-15T01:32:31;14.00;99.90
47626;DHT22;33342;45.574;9.252;2023-04-15T01:35:17;14.00;99.90
47626;DHT22;33342;45.574;9.252;2023-04-15T01:37:47;14.00;99.90
47626;DHT22;33342;45.574;9.252;2023-04-15T01:40:16;13.90;99.90
47626;DHT22;33342;45.574;9.252;2023-04-15T01:42:43;13.90;99.90
47626;DHT22;33342;45.574;9.252;2023-04-15T01:45:10;13.90;99.90
47626;DHT22;33342;45.574;9.252;2023-04-15T01:47:38;13.90;99.90
47626;DHT22;33342;45.574;9.252;2023-04-15T01:50:05;13.90;99.90
47626;DHT22;33342;45.574;9.252;2023-04-15T01:52:32;13.90;99.90
47626;DHT22;33342;45.574;9.252;2023-04-15T01:54:59;13.90;99.90
47626;DHT22;33342;45.574;9.252;2023-04-15T01:57:26;13.80;99.90
47626;DHT22;33342;45.574;9.252;2023-04-15T01:59:53;13.80;99.90
47626;DHT22;33342;45.574;9.252;2023-04-15T02:02:20;13.80;99.90
47626;DHT22;33342;45.574;9.252;2023-04-15T02:04:47;13.80;99.90
47626;DHT22;33342;45.574;9.252;2023-04-15T02:07:15;13.80;99.90
47626;DHT22;33342;45.574;9.252;2023-04-15T02:09:42;13.70;99.90
47626;DHT22;33342;45.574;9.252;2023-04-15T02:12:09;13.70;99.90
47626;DHT22;33342;45.574;9.252;2023-04-15T02:14:36;13.70;99.90
47626;DHT22;33342;45.574;9.252;2023-04-15T02:17:03;13.60;99.90
47626;DHT22;33342;45.574;9.252;2023-04-15T02:19:34;13.60;99.90
47626;DHT22;33342;45.574;9.252;2023-04-15T02:22:02;13.60;99.90
47626;DHT22;33342;45.574;9.252;2023-04-15T02:24:29;13.60;99.90
47626;DHT22;33342;45.574;9.252;2023-04-15T02:26:57;13.60;99.90
47626;DHT22;33342;45.574;9.252;2023-04-15T02:29:24;13.50;99.90
47626;DHT22;33342;45.574;9.252;2023-04-15T02:31:51;13.60;99.90
47626;DHT22;33342;45.574;9.252;2023-04-15T02:34:19;13.60;99.90
47626;DHT22;33342;45.574;9.252;2023-04-15T02:36:46;13.60;99.90
47626;DHT22;33342;45.574;9.252;2023-04-15T02:39:15;13.60;99.90
47626;DHT22;33342;45.574;9.252;2023-04-15T02:41:44;13.50;99.90
47626;DHT22;33342;45.574;9.252;2023-04-15T02:44:14;13.50;99.90
47626;DHT22;33342;45.574;9.252;2023-04-15T02:46:42;13.50;99.90
47626;DHT22;33342;45.574;9.252;2023-04-15T02:49:09;13.40;99.90
47626;DHT22;33342;45.574;9.252;2023-04-15T02:51:36;13.40;99.90
47626;DHT22;33342;45.574;9.252;2023-04-15T02:54:04;13.40;99.90
47626;DHT22;33342;45.574;9.252;2023-04-15T02:56:31;13.30;99.90
47626;DHT22;33342;45.574;9.252;2023-04-15T02:58:58;13.30;99.90
47626;DHT22;33342;45.574;9.252;2023-04-15T03:01:26;13.30;99.90
47626;DHT22;33342;45.574;9.252;2023-04-15T03:03:53;13.20;99.90
47626;DHT22;33342;45.574;9.252;2023-04-15T03:06:20;13.20;99.90
47626;DHT22;33342;45.574;9.252;2023-04-15T03:08:49;13.20;99.90
47626;DHT22;33342;45.574;9.252;2023-04-15T03:11:16;13.20;99.90
47626;DHT22;33342;45.574;9.252;2023-04-15T03:13:44;13.20;99.90
47626;DHT22;33342;45.574;9.252;2023-04-15T03:16:24;13.20;99.90
47626;DHT22;33342;45.574;9.252;2023-04-15T03:18:51;13.20;99.90
47626;DHT22;33342;45.574;9.252;2023-04-15T03:21:20;13.20;99.90
47626;DHT22;33342;45.574;9.252;2023-04-15T03:23:48;13.20;99.90
47626;DHT22;33342;45.574;9.252;2023-04-15T03:26:28;13.20;99.90
47626;DHT22;33342;45.574;9.252;2023-04-15T03:28:59;13.20;99.90
47626;DHT22;33342;45.574;9.252;2023-04-15T03:31:27;13.10;99.90
47626;DHT22;33342;45.574;9.252;2023-04-15T03:33:54;13.20;99.90
47626;DHT22;33342;45.574;9.252;2023-04-15T03:36:22;13.10;99.90
47626;DHT22;33342;45.574;9.252;2023-04-15T03:38:49;13.10;99.90
47626;DHT22;33342;45.574;9.252;2023-04-15T03:41:16;13.10;99.90
47626;DHT22;33342;45.574;9.252;2023-04-15T03:43:43;13.10;99.90
47626;DHT22;33342;45.574;9.252;2023-04-15T03:46:10;13.00;99.90
47626;DHT22;33342;45.574;9.252;2023-04-15T03:48:37;13.00;99.90
47626;DHT22;33342;45.574;9.252;2023-04-15T03:51:04;13.00;99.90
47626;DHT22;33342;45.574;9.252;2023-04-15T03:53:31;13.00;99.90
47626;DHT22;33342;45.574;9.252;2023-04-15T03:55:58;12.90;99.90
47626;DHT22;33342;45.574;9.252;2023-04-15T03:58:25;12.90;99.90
47626;DHT22;33342;45.574;9.252;2023-04-15T04:00:52;12.90;99.90
47626;DHT22;33342;45.574;9.252;2023-04-15T04:03:20;12.90;99.90
47626;DHT22;33342;45.574;9.252;2023-04-15T04:05:47;12.90;99.90
47626;DHT22;33342;45.574;9.252;2023-04-15T04:08:15;12.90;99.90
47626;DHT22;33342;45.574;9.252;2023-04-15T04:10:42;12.90;99.90
47626;DHT22;33342;45.574;9.252;2023-04-15T04:13:09;12.90;99.90
47626;DHT22;33342;45.574;9.252;2023-04-15T04:15:36;12.90;99.90
47626;DHT22;33342;45.574;9.252;2023-04-15T04:18:03;12.90;99.90
47626;DHT22;33342;45.574;9.252;2023-04-15T04:20:30;12.90;99.90
47626;DHT22;33342;45.574;9.252;2023-04-15T04:22:57;12.90;99.90
47626;DHT22;33342;45.574;9.252;2023-04-15T04:25:24;13.00;99.90
47626;DHT22;33342;45.574;9.252;2023-04-15T04:27:51;13.00;99.90
47626;DHT22;33342;45.574;9.252;2023-04-15T04:30:18;13.00;99.90
47626;DHT22;33342;45.574;9.252;2023-04-15T04:32:45;12.90;99.90
47626;DHT22;33342;45.574;9.252;2023-04-15T04:35:12;13.00;99.90
47626;DHT22;33342;45.574;9.252;2023-04-15T04:37:39;13.00;99.90
47626;DHT22;33342;45.574;9.252;2023-04-15T04:40:07;13.00;99.90
47626;DHT22;33342;45.574;9.252;2023-04-15T04:42:35;13.10;99.90
47626;DHT22;33342;45.574;9.252;2023-04-15T04:45:05;13.10;99.90
47626;DHT22;33342;45.574;9.252;2023-04-15T04:47:33;13.10;99.90
47626;DHT22;33342;45.574;9.252;2023-04-15T04:50:00;13.10;99.90
47626;DHT22;33342;45.574;9.252;2023-04-15T04:52:26;13.10;99.90
47626;DHT22;33342;45.574;9.252;2023-04-15T04:54:54;13.10;99.90
47626;DHT22;33342;45.574;9.252;2023-04-15T04:57:21;13.10;99.90
47626;DHT22;33342;45.574;9.252;2023-04-15T04:59:48;13.10;99.90
47626;DHT22;33342;45.574;9.252;2023-04-15T05:02:15;13.10;99.90
47626;DHT22;33342;45.574;9.252;2023-04-15T05:04:42;13.10;99.90
47626;DHT22;33342;45.574;9.252;2023-04-15T05:07:09;13.10;99.90
47626;DHT22;33342;45.574;9.252;2023-04-15T05:09:36;13.20;99.90
47626;DHT22;33342;45.574;9.252;2023-04-15T05:12:03;13.20;99.90
47626;DHT22;33342;45.574;9.252;2023-04-15T05:14:30;13.10;99.90
47626;DHT22;33342;45.574;9.252;2023-04-15T05:16:58;13.10;99.90
47626;DHT22;33342;45.574;9.252;2023-04-15T05:19:25;13.10;99.90
47626;DHT22;33342;45.574;9.252;2023-04-15T05:21:52;13.10;99.90
47626;DHT22;33342;45.574;9.252;2023-04-15T05:24:19;13.20;99.90
47626;DHT22;33342;45.574;9.252;2023-04-15T05:26:46;13.20;99.90
47626;DHT22;33342;45.574;9.252;2023-04-15T05:29:13;13.20;99.90
47626;DHT22;33342;45.574;9.252;2023-04-15T05:31:40;13.30;99.90
47626;DHT22;33342;45.574;9.252;2023-04-15T05:34:08;13.30;99.90
47626;DHT22;33342;45.574;9.252;2023-04-15T05:36:36;13.30;99.90
47626;DHT22;33342;45.574;9.252;2023-04-15T05:39:03;13.30;99.90
47626;DHT22;33342;45.574;9.252;2023-04-15T05:41:30;13.40;99.90
47626;DHT22;33342;45.574;9.252;2023-04-15T05:43:57;13.40;99.90
47626;DHT22;33342;45.574;9.252;2023-04-15T05:46:24;13.40;99.90
47626;DHT22;33342;45.574;9.252;2023-04-15T05:48:51;13.50;99.90
47626;DHT22;33342;45.574;9.252;2023-04-15T05:51:23;13.50;99.90
47626;DHT22;33342;45.574;9.252;2023-04-15T05:53:49;13.60;99.90
47626;DHT22;33342;45.574;9.252;2023-04-15T05:56:16;13.50;99.90
47626;DHT22;33342;45.574;9.252;2023-04-15T05:58:43;13.60;99.90
47626;DHT22;33342;45.574;9.252;2023-04-15T06:01:10;13.60;99.90
47626;DHT22;33342;45.574;9.252;2023-04-15T06:03:38;13.60;99.90
47626;DHT22;33342;45.574;9.252;2023-04-15T06:06:05;13.70;99.90
47626;DHT22;33342;45.574;9.252;2023-04-15T06:08:33;13.70;99.90
47626;DHT22;33342;45.574;9.252;2023-04-15T06:11:00;13.80;99.90
47626;DHT22;33342;45.574;9.252;2023-04-15T06:13:28;13.80;99.90
47626;DHT22;33342;45.574;9.252;2023-04-15T06:15:55;13.80;99.90
47626;DHT22;33342;45.574;9.252;2023-04-15T06:18:22;13.80;99.90
47626;DHT22;33342;45.574;9.252;2023-04-15T06:20:49;13.80;99.90
47626;DHT22;33342;45.574;9.252;2023-04-15T06:23:16;13.90;99.90
47626;DHT22;33342;45.574;9.252;2023-04-15T06:25:43;13.90;99.90
47626;DHT22;33342;45.574;9.252;2023-04-15T06:28:10;13.90;99.90
47626;DHT22;33342;45.574;9.252;2023-04-15T06:30:37;13.90;99.90
47626;DHT22;33342;45.574;9.252;2023-04-15T06:33:04;13.90;99.90
47626;DHT22;33342;45.574;9.252;2023-04-15T06:35:32;14.00;99.90
47626;DHT22;33342;45.574;9.252;2023-04-15T06:37:59;14.00;99.90
47626;DHT22;33342;45.574;9.252;2023-04-15T06:40:26;14.10;99.90
47626;DHT22;33342;45.574;9.252;2023-04-15T06:42:54;14.10;99.90
47626;DHT22;33342;45.574;9.252;2023-04-15T06:45:21;14.10;99.90
47626;DHT22;33342;45.574;9.252;2023-04-15T06:47:48;14.20;99.90
47626;DHT22;33342;45.574;9.252;2023-04-15T06:50:15;14.20;99.90
47626;DHT22;33342;45.574;9.252;2023-04-15T06:52:42;14.20;99.90
47626;DHT22;33342;45.574;9.252;2023-04-15T06:55:09;14.20;99.90
47626;DHT22;33342;45.574;9.252;2023-04-15T06:57:36;14.20;99.90
47626;DHT22;33342;45.574;9.252;2023-04-15T07:00:03;14.20;99.90
47626;DHT22;33342;45.574;9.252;2023-04-15T07:02:32;14.20;99.90
47626;DHT22;33342;45.574;9.252;2023-04-15T07:04:59;14.30;99.90
47626;DHT22;33342;45.574;9.252;2023-04-15T07:07:26;14.30;99.90
47626;DHT22;33342;45.574;9.252;2023-04-15T07:09:53;14.30;99.90
47626;DHT22;33342;45.574;9.252;2023-04-15T07:12:20;14.30;99.90
47626;DHT22;33342;45.574;9.252;2023-04-15T07:14:47;14.30;99.90
47626;DHT22;33342;45.574;9.252;2023-04-15T07:17:15;14.30;99.90
47626;DHT22;33342;45.574;9.252;2023-04-15T07:19:42;14.30;99.90
47626;DHT22;33342;45.574;9.252;2023-04-15T07:22:09;14.30;99.90
47626;DHT22;33342;45.574;9.252;2023-04-15T07:24:36;14.20;99.90
47626;DHT22;33342;45.574;9.252;2023-04-15T07:27:03;14.20;99.90
47626;DHT22;33342;45.574;9.252;2023-04-15T07:29:30;14.20;99.90
47626;DHT22;33342;45.574;9.252;2023-04-15T07:31:57;14.20;99.90
47626;DHT22;33342;45.574;9.252;2023-04-15T07:34:24;14.30;99.90
47626;DHT22;33342;45.574;9.252;2023-04-15T07:36:51;14.30;99.90
47626;DHT22;33342;45.574;9.252;2023-04-15T07:39:18;14.30;99.90
47626;DHT22;33342;45.574;9.252;2023-04-15T07:41:45;14.30;99.90
47626;DHT22;33342;45.574;9.252;2023-04-15T07:44:12;14.30;99.90
47626;DHT22;33342;45.574;9.252;2023-04-15T07:46:39;14.30;99.90
47626;DHT22;33342;45.574;9.252;2023-04-15T07:49:06;14.30;99.90
47626;DHT22;33342;45.574;9.252;2023-04-15T07:51:33;14.30;99.90
47626;DHT22;33342;45.574;9.252;2023-04-15T07:54:00;14.40;99.90
47626;DHT22;33342;45.574;9.252;2023-04-15T07:56:29;14.40;99.90
47626;DHT22;33342;45.574;9.252;2023-04-15T07:58:55;14.50;99.90
47626;DHT22;33342;45.574;9.252;2023-04-15T08:01:23;14.50;99.90
47626;DHT22;33342;45.574;9.252;2023-04-15T08:03:50;14.50;99.90
47626;DHT22;33342;45.574;9.252;2023-04-15T08:06:17;14.50;99.90
47626;DHT22;33342;45.574;9.252;2023-04-15T08:08:45;14.50;99.90
47626;DHT22;33342;45.574;9.252;2023-04-15T08:11:12;14.50;99.90
47626;DHT22;33342;45.574;9.252;2023-04-15T08:13:40;14.50;99.90
47626;DHT22;33342;45.574;9.252;2023-04-15T08:16:24;14.50;99.90
47626;DHT22;33342;45.574;9.252;2023-04-15T08:18:53;14.40;99.90
47626;DHT22;33342;45.574;9.252;2023-04-15T08:21:21;14.40;99.90
47626;DHT22;33342;45.574;9.252;2023-04-15T08:23:50;14.40;99.90
47626;DHT22;33342;45.574;9.252;2023-04-15T08:26:18;14.40;99.90
47626;DHT22;33342;45.574;9.252;2023-04-15T08:28:46;14.40;99.90
47626;DHT22;33342;45.574;9.252;2023-04-15T08:31:14;14.30;99.90
47626;DHT22;33342;45.574;9.252;2023-04-15T08:33:42;14.30;99.90
47626;DHT22;33342;45.574;9.252;2023-04-15T08:36:09;14.30;99.90
47626;DHT22;33342;45.574;9.252;2023-04-15T08:38:36;14.40;99.90
47626;DHT22;33342;45.574;9.252;2023-04-15T08:41:08;14.40;99.90
47626;DHT22;33342;45.574;9.252;2023-04-15T08:43:46;14.30;99.90
47626;DHT22;33342;45.574;9.252;2023-04-15T08:46:14;14.30;99.90
47626;DHT22;33342;45.574;9.252;2023-04-15T08:48:43;14.30;99.90
47626;DHT22;33342;45.574;9.252;2023-04-15T08:51:12;14.30;99.90
47626;DHT22;33342;45.574;9.252;2023-04-15T08:53:43;14.30;99.90
47626;DHT22;33342;45.574;9.252;2023-04-15T08:56:13;14.40;99.90
47626;DHT22;33342;45.574;9.252;2023-04-15T08:58:43;14.40;99.90
47626;DHT22;33342;45.574;9.252;2023-04-15T09:01:11;14.40;99.90
47626;DHT22;33342;45.574;9.252;2023-04-15T09:03:39;14.50;99.90
47626;DHT22;33342;45.574;9.252;2023-04-15T09:06:06;14.50;99.90
47626;DHT22;33342;45.574;9.252;2023-04-15T09:08:34;14.50;99.90
47626;DHT22;33342;45.574;9.252;2023-04-15T09:11:02;14.60;99.90
47626;DHT22;33342;45.574;9.252;2023-04-15T09:13:29;14.60;99.90
47626;DHT22;33342;45.574;9.252;2023-04-15T09:15:57;14.60;99.90
47626;DHT22;33342;45.574;9.252;2023-04-15T09:18:29;14.60;99.90
47626;DHT22;33342;45.574;9.252;2023-04-15T09:21:04;14.70;99.90
47626;DHT22;33342;45.574;9.252;2023-04-15T09:23:32;14.70;99.90
47626;DHT22;33342;45.574;9.252;2023-04-15T09:26:00;14.80;99.90
47626;DHT22;33342;45.574;9.252;2023-04-15T09:28:28;14.90;99.90
47626;DHT22;33342;45.574;9.252;2023-04-15T09:30:56;14.90;99.90
47626;DHT22;33342;45.574;9.252;2023-04-15T09:33:24;15.00;99.90
47626;DHT22;33342;45.574;9.252;2023-04-15T09:36:00;15.00;99.90
47626;DHT22;33342;45.574;9.252;2023-04-15T09:38:27;15.00;99.90
47626;DHT22;33342;45.574;9.252;2023-04-15T09:40:55;15.00;99.90
47626;DHT22;33342;45.574;9.252;2023-04-15T09:43:22;15.00;99.90
47626;DHT22;33342;45.574;9.252;2023-04-15T09:45:52;15.00;99.90
47626;DHT22;33342;45.574;9.252;2023-04-15T09:48:24;15.00;99.90
47626;DHT22;33342;45.574;9.252;2023-04-15T09:50:57;15.00;99.90
47626;DHT22;33342;45.574;9.252;2023-04-15T09:53:44;15.10;99.90
47626;DHT22;33342;45.574;9.252;2023-04-15T09:56:11;15.10;99.90
47626;DHT22;33342;45.574;9.252;2023-04-15T09:58:38;15.10;99.90
47626;DHT22;33342;45.574;9.252;2023-04-15T10:01:07;15.20;99.90
47626;DHT22;33342;45.574;9.252;2023-04-15T10:03:35;15.20;99.90
47626;DHT22;33342;45.574;9.252;2023-04-15T10:06:03;15.30;99.90
47626;DHT22;33342;45.574;9.252;2023-04-15T10:08:33;15.30;99.90
47626;DHT22;33342;45.574;9.252;2023-04-15T10:11:04;15.40;99.90
47626;DHT22;33342;45.574;9.252;2023-04-15T10:13:32;15.40;99.90
47626;DHT22;33342;45.574;9.252;2023-04-15T10:16:07;15.50;99.90
47626;DHT22;33342;45.574;9.252;2023-04-15T10:18:45;15.50;99.90
47626;DHT22;33342;45.574;9.252;2023-04-15T10:21:12;15.50;99.90
47626;DHT22;33342;45.574;9.252;2023-04-15T10:23:42;15.50;99.90
47626;DHT22;33342;45.574;9.252;2023-04-15T10:26:10;15.60;99.90
47626;DHT22;33342;45.574;9.252;2023-04-15T10:28:38;15.60;99.90
47626;DHT22;33342;45.574;9.252;2023-04-15T10:31:05;15.70;99.90
47626;DHT22;33342;45.574;9.252;2023-04-15T10:33:34;15.70;99.90
47626;DHT22;33342;45.574;9.252;2023-04-15T10:36:01;15.80;99.90
47626;DHT22;33342;45.574;9.252;2023-04-15T10:38:39;15.90;99.90
47626;DHT22;33342;45.574;9.252;2023-04-15T10:41:23;15.90;99.90
47626;DHT22;33342;45.574;9.252;2023-04-15T10:43:55;16.00;99.90
47626;DHT22;33342;45.574;9.252;2023-04-15T10:46:44;16.00;99.90
47626;DHT22;33342;45.574;9.252;2023-04-15T10:49:13;16.10;99.90
47626;DHT22;33342;45.574;9.252;2023-04-15T10:51:43;16.20;99.90
47626;DHT22;33342;45.574;9.252;2023-04-15T10:54:15;16.20;99.90
47626;DHT22;33342;45.574;9.252;2023-04-15T10:56:43;16.30;99.90
47626;DHT22;33342;45.574;9.252;2023-04-15T10:59:11;16.40;99.90
47626;DHT22;33342;45.574;9.252;2023-04-15T11:02:01;16.50;99.90
47626;DHT22;33342;45.574;9.252;2023-04-15T11:07:49;16.70;99.90
47626;DHT22;33342;45.574;9.252;2023-04-15T11:12:56;17.00;99.90
47626;DHT22;33342;45.574;9.252;2023-04-15T11:15:31;17.10;99.90
47626;DHT22;33342;45.574;9.252;2023-04-15T11:18:14;17.20;99.90
47626;DHT22;33342;45.574;9.252;2023-04-15T11:20:44;17.30;99.90
47626;DHT22;33342;45.574;9.252;2023-04-15T11:23:11;17.40;99.90
47626;DHT22;33342;45.574;9.252;2023-04-15T11:25:42;17.40;99.90
47626;DHT22;33342;45.574;9.252;2023-04-15T11:28:11;17.50;99.90
47626;DHT22;33342;45.574;9.252;2023-04-15T11:30:38;17.50;99.90
47626;DHT22;33342;45.574;9.252;2023-04-15T11:33:08;17.60;99.90
47626;DHT22;33342;45.574;9.252;2023-04-15T11:35:35;17.60;99.90
47626;DHT22;33342;45.574;9.252;2023-04-15T11:38:09;17.70;99.90
47626;DHT22;33342;45.574;9.252;2023-04-15T11:40:38;17.70;99.90
47626;DHT22;33342;45.574;9.252;2023-04-15T11:45:37;17.70;99.90
47626;DHT22;33342;45.574;9.252;2023-04-15T11:48:09;17.70;99.90
47626;DHT22;33342;45.574;9.252;2023-04-15T11:50:37;17.70;99.90
47626;DHT22;33342;45.574;9.252;2023-04-15T11:53:08;17.80;99.90
47626;DHT22;33342;45.574;9.252;2023-04-15T11:55:46;17.80;99.90
47626;DHT22;33342;45.574;9.252;2023-04-15T11:58:21;17.80;99.90
47626;DHT22;33342;45.574;9.252;2023-04-15T12:00:59;17.80;99.90
47626;DHT22;33342;45.574;9.252;2023-04-15T12:03:28;17.90;99.90
47626;DHT22;33342;45.574;9.252;2023-04-15T12:13:54;18.20;99.90
47626;DHT22;33342;45.574;9.252;2023-04-15T12:16:23;18.30;99.90
47626;DHT22;33342;45.574;9.252;2023-04-15T12:18:52;18.30;99.90
47626;DHT22;33342;45.574;9.252;2023-04-15T12:21:19;18.30;99.90
47626;DHT22;33342;45.574;9.252;2023-04-15T12:23:54;18.40;99.90
47626;DHT22;33342;45.574;9.252;2023-04-15T12:26:27;18.50;99.90
47626;DHT22;33342;45.574;9.252;2023-04-15T12:29:02;18.50;99.90
47626;DHT22;33342;45.574;9.252;2023-04-15T12:31:29;18.50;99.90
47626;DHT22;33342;45.574;9.252;2023-04-15T12:33:57;18.50;99.90
47626;DHT22;33342;45.574;9.252;2023-04-15T12:36:25;18.50;99.90
47626;DHT22;33342;45.574;9.252;2023-04-15T12:38:52;18.40;99.90
47626;DHT22;33342;45.574;9.252;2023-04-15T12:41:19;18.40;99.90
47626;DHT22;33342;45.574;9.252;2023-04-15T12:43:47;18.40;99.90
47626;DHT22;33342;45.574;9.252;2023-04-15T12:46:14;18.40;99.90
47626;DHT22;33342;45.574;9.252;2023-04-15T12:48:41;18.40;99.90
47626;DHT22;33342;45.574;9.252;2023-04-15T12:51:09;18.50;99.90
47626;DHT22;33342;45.574;9.252;2023-04-15T12:53:36;18.50;99.90
47626;DHT22;33342;45.574;9.252;2023-04-15T12:56:03;18.60;99.90
47626;DHT22;33342;45.574;9.252;2023-04-15T12:58:30;18.70;99.90
47626;DHT22;33342;45.574;9.252;2023-04-15T13:00:58;18.70;99.90
47626;DHT22;33342;45.574;9.252;2023-04-15T13:03:25;18.80;99.90
47626;DHT22;33342;45.574;9.252;2023-04-15T13:05:52;18.80;99.90
47626;DHT22;33342;45.574;9.252;2023-04-15T13:08:19;18.90;99.90
47626;DHT22;33342;45.574;9.252;2023-04-15T13:10:46;18.80;99.90
47626;DHT22;33342;45.574;9.252;2023-04-15T13:13:13;18.80;99.90
47626;DHT22;33342;45.574;9.252;2023-04-15T13:15:40;18.80;99.90
47626;DHT22;33342;45.574;9.252;2023-04-15T13:18:07;18.90;99.90
47626;DHT22;33342;45.574;9.252;2023-04-15T13:20:35;18.90;99.90
47626;DHT22;33342;45.574;9.252;2023-04-15T13:23:02;19.00;99.90
47626;DHT22;33342;45.574;9.252;2023-04-15T13:25:29;19.10;99.90
47626;DHT22;33342;45.574;9.252;2023-04-15T13:27:56;19.20;99.90
47626;DHT22;33342;45.574;9.252;2023-04-15T13:30:23;19.20;99.90
47626;DHT22;33342;45.574;9.252;2023-04-15T13:32:50;19.30;99.90
47626;DHT22;33342;45.574;9.252;2023-04-15T13:35:17;19.40;99.90
47626;DHT22;33342;45.574;9.252;2023-04-15T13:37:44;19.40;99.90
47626;DHT22;33342;45.574;9.252;2023-04-15T13:40:11;19.50;99.90
47626;DHT22;33342;45.574;9.252;2023-04-15T13:42:38;19.50;99.90
47626;DHT22;33342;45.574;9.252;2023-04-15T13:45:07;19.50;99.90
47626;DHT22;33342;45.574;9.252;2023-04-15T13:47:34;19.40;99.90
47626;DHT22;33342;45.574;9.252;2023-04-15T13:50:01;19.40;99.90
47626;DHT22;33342;45.574;9.252;2023-04-15T13:52:28;19.40;99.90
47626;DHT22;33342;45.574;9.252;2023-04-15T13:54:55;19.30;99.90
47626;DHT22;33342;45.574;9.252;2023-04-15T13:57:42;19.30;99.90
47626;DHT22;33342;45.574;9.252;2023-04-15T14:00:09;19.30;99.90
47626;DHT22;33342;45.574;9.252;2023-04-15T14:02:36;19.30;99.90
47626;DHT22;33342;45.574;9.252;2023-04-15T14:05:04;19.30;99.90
47626;DHT22;33342;45.574;9.252;2023-04-15T14:07:31;19.30;99.90
47626;DHT22;33342;45.574;9.252;2023-04-15T14:09:59;19.30;99.90
47626;DHT22;33342;45.574;9.252;2023-04-15T14:12:26;19.40;99.90
47626;DHT22;33342;45.574;9.252;2023-04-15T14:14:53;19.40;99.90
47626;DHT22;33342;45.574;9.252;2023-04-15T14:17:20;19.40;99.90
47626;DHT22;33342;45.574;9.252;2023-04-15T14:19:47;19.50;99.90
47626;DHT22;33342;45.574;9.252;2023-04-15T14:22:14;19.50;99.90
47626;DHT22;33342;45.574;9.252;2023-04-15T14:24:41;19.50;99.90
47626;DHT22;33342;45.574;9.252;2023-04-15T14:27:08;19.50;99.90
47626;DHT22;33342;45.574;9.252;2023-04-15T14:29:37;19.50;99.90
47626;DHT22;33342;45.574;9.252;2023-04-15T14:32:04;19.50;99.90
47626;DHT22;33342;45.574;9.252;2023-04-15T14:34:38;19.50;99.90
47626;DHT22;33342;45.574;9.252;2023-04-15T14:37:05;19.40;99.90
47626;DHT22;33342;45.574;9.252;2023-04-15T14:39:32;19.40;99.90
47626;DHT22;33342;45.574;9.252;2023-04-15T14:41:59;19.30;99.90
47626;DHT22;33342;45.574;9.252;2023-04-15T14:44:27;19.40;99.90
47626;DHT22;33342;45.574;9.252;2023-04-15T14:46:54;19.50;99.90
47626;DHT22;33342;45.574;9.252;2023-04-15T14:49:21;19.70;99.90
47626;DHT22;33342;45.574;9.252;2023-04-15T14:51:49;19.80;99.90
47626;DHT22;33342;45.574;9.252;2023-04-15T14:54:16;20.00;99.90
47626;DHT22;33342;45.574;9.252;2023-04-15T14:56:43;20.10;99.90
47626;DHT22;33342;45.574;9.252;2023-04-15T14:59:10;20.20;99.90
47626;DHT22;33342;45.574;9.252;2023-04-15T15:01:37;20.40;99.90
47626;DHT22;33342;45.574;9.252;2023-04-15T15:04:04;20.40;99.90
47626;DHT22;33342;45.574;9.252;2023-04-15T15:06:31;20.60;99.90
47626;DHT22;33342;45.574;9.252;2023-04-15T15:08:58;20.80;99.90
47626;DHT22;33342;45.574;9.252;2023-04-15T15:11:27;21.20;99.90
47626;DHT22;33342;45.574;9.252;2023-04-15T15:13:55;21.80;99.90
47626;DHT22;33342;45.574;9.252;2023-04-15T15:16:23;22.40;99.90
47626;DHT22;33342;45.574;9.252;2023-04-15T15:18:50;23.10;99.90
47626;DHT22;33342;45.574;9.252;2023-04-15T15:21:17;23.60;99.90
47626;DHT22;33342;45.574;9.252;2023-04-15T15:23:44;23.70;99.90
47626;DHT22;33342;45.574;9.252;2023-04-15T15:26:11;23.40;99.90
47626;DHT22;33342;45.574;9.252;2023-04-15T15:28:38;23.00;99.90
47626;DHT22;33342;45.574;9.252;2023-04-15T15:31:06;22.80;99.90
47626;DHT22;33342;45.574;9.252;2023-04-15T15:33:33;22.70;99.90
47626;DHT22;33342;45.574;9.252;2023-04-15T15:36:04;22.60;99.90
47626;DHT22;33342;45.574;9.252;2023-04-15T15:38:31;22.50;99.90
47626;DHT22;33342;45.574;9.252;2023-04-15T15:41:02;22.90;99.90
47626;DHT22;33342;45.574;9.252;2023-04-15T15:43:30;23.60;99.90
47626;DHT22;33342;45.574;9.252;2023-04-15T15:45:57;24.30;99.90
47626;DHT22;33342;45.574;9.252;2023-04-15T15:48:24;24.90;99.90
47626;DHT22;33342;45.574;9.252;2023-04-15T15:50:52;25.20;99.90
47626;DHT22;33342;45.574;9.252;2023-04-15T15:53:19;25.20;99.90